createdAt,value
2022-10-11T00:02:14.105Z,20.20
2022-10-11T00:12:14.104Z,19.50
2022-10-11T00:22:14.101Z,19.00
2022-10-11T00:32:14.119Z,17.50
2022-10-11T00:42:14.132Z,16.90
2022-10-11T00:52:14.188Z,19.50
2022-10-11T01:02:14.195Z,17.20
2022-10-11T01:12:14.200Z,17.50
2022-10-11T01:22:14.133Z,17.50
2022-10-11T01:32:14.144Z,15.00
2022-10-11T01:42:14.113Z,16.70
2022-10-11T01:52:14.126Z,16.40
2022-10-11T02:02:14.228Z,15.70
2022-10-11T02:12:14.166Z,15.40
2022-10-11T02:22:14.161Z,14.20
2022-10-11T02:32:14.187Z,12.10
2022-10-11T02:42:14.175Z,11.90
2022-10-11T02:52:14.176Z,13.60
2022-10-11T03:02:14.261Z,12.60
2022-10-11T03:12:14.189Z,11.30
2022-10-11T03:22:14.167Z,14.80
2022-10-11T03:32:14.282Z,12.40
2022-10-11T03:42:14.182Z,12.80
2022-10-11T03:52:14.210Z,14.10
2022-10-11T04:02:14.264Z,12.10
2022-10-11T04:12:14.233Z,15.40
2022-10-11T04:22:14.214Z,15.50
2022-10-11T04:32:14.195Z,12.70
2022-10-11T04:42:14.198Z,14.60
2022-10-11T04:52:14.213Z,14.30
2022-10-11T05:02:14.291Z,13.10
2022-10-11T05:12:14.219Z,16.10
2022-10-11T05:22:14.227Z,11.50
2022-10-11T05:32:14.209Z,11.20
2022-10-11T05:42:14.227Z,13.80
2022-10-11T05:52:14.222Z,11.50
2022-10-11T06:02:14.245Z,11.90
2022-10-11T06:12:14.221Z,10.80
2022-10-11T06:22:14.231Z,13.70
2022-10-11T06:32:14.278Z,11.60
2022-10-11T06:42:14.267Z,11.40
2022-10-11T06:52:14.245Z,11.00
2022-10-11T07:02:14.259Z,10.00
2022-10-11T07:12:14.271Z,9.20
2022-10-11T07:22:14.327Z,9.50
2022-10-11T07:32:14.349Z,9.80
2022-10-11T07:42:14.255Z,8.20
2022-10-11T07:52:14.286Z,7.50
2022-10-11T08:02:14.275Z,7.70
2022-10-11T08:22:14.574Z,9.80
2022-10-11T08:32:14.307Z,10.70
2022-10-11T08:42:14.379Z,8.60
2022-10-11T08:52:14.300Z,8.90
2022-10-11T09:02:14.287Z,9.60
2022-10-11T09:12:14.297Z,10.80
2022-10-11T09:22:14.331Z,6.60
2022-10-11T09:32:14.327Z,10.70
2022-10-11T09:42:14.314Z,8.50
2022-10-11T09:52:14.326Z,8.50
2022-10-11T10:02:14.441Z,9.40
2022-10-11T10:12:14.338Z,6.80
2022-10-11T10:22:14.334Z,11.30
2022-10-11T10:32:15.368Z,9.10
2022-10-11T10:42:14.341Z,9.40
2022-10-11T10:52:14.348Z,8.30
2022-10-11T11:02:28.234Z,8.70
2022-10-11T11:12:14.380Z,6.70
2022-10-11T11:22:14.437Z,11.40
2022-10-11T11:32:14.343Z,7.80
2022-10-11T11:42:14.368Z,8.00
2022-10-11T11:52:14.366Z,5.20
2022-10-11T12:02:14.546Z,6.20
2022-10-11T12:12:14.418Z,8.30
2022-10-11T12:22:14.384Z,8.60
2022-10-11T12:32:14.389Z,9.30
2022-10-11T12:42:14.377Z,6.00
2022-10-11T12:52:14.388Z,5.90
2022-10-11T13:02:14.405Z,6.80
2022-10-11T13:12:14.467Z,9.00
2022-10-11T13:22:14.435Z,7.60
2022-10-11T13:32:14.399Z,5.80
2022-10-11T13:42:14.490Z,8.60
2022-10-11T13:52:14.438Z,7.10
2022-10-11T14:02:14.453Z,7.80
2022-10-11T14:12:14.439Z,9.90
2022-10-11T14:22:14.441Z,9.20
2022-10-11T14:32:14.446Z,6.30
2022-10-11T14:42:14.469Z,9.60
2022-10-11T14:52:14.455Z,7.40
2022-10-11T15:02:14.468Z,8.40
2022-10-11T15:12:14.480Z,5.90
2022-10-11T15:22:14.533Z,8.80
2022-10-11T15:32:14.486Z,10.50
2022-10-11T15:42:14.496Z,9.90
2022-10-11T15:52:14.484Z,10.90
2022-10-11T16:02:14.499Z,9.70
2022-10-11T16:12:14.572Z,10.20
2022-10-11T16:22:14.539Z,14.20
2022-10-11T16:32:14.586Z,6.10
2022-10-11T16:42:14.572Z,7.60
2022-10-11T16:52:14.503Z,7.00
2022-10-11T17:02:14.595Z,8.70
2022-10-11T17:12:14.494Z,8.30
2022-10-11T17:22:14.519Z,10.00
2022-10-11T17:32:14.501Z,11.60
2022-10-11T17:42:14.508Z,17.90
2022-10-11T17:52:14.590Z,14.90
2022-10-11T18:02:14.531Z,14.10
2022-10-11T18:12:14.513Z,12.30
2022-10-11T18:22:14.608Z,15.00
2022-10-11T18:32:14.543Z,14.10
2022-10-11T18:42:14.549Z,15.50
2022-10-11T18:52:14.553Z,14.60
2022-10-11T19:02:14.550Z,13.70
2022-10-11T19:12:14.547Z,14.80
2022-10-11T19:22:14.647Z,13.10
2022-10-11T19:32:14.576Z,13.00
2022-10-11T19:42:14.560Z,13.40
2022-10-11T19:52:14.572Z,13.00
2022-10-11T20:32:14.661Z,14.90
2022-10-11T20:42:14.568Z,13.40
2022-10-11T20:52:14.663Z,14.60
2022-10-11T21:02:18.672Z,14.40
2022-10-11T21:12:14.592Z,13.90
2022-10-11T21:22:14.593Z,14.00
2022-10-11T21:32:14.714Z,14.20
2022-10-11T21:42:14.595Z,14.50
2022-10-11T21:52:14.905Z,14.00
2022-10-11T22:02:14.603Z,13.30
2022-10-11T22:12:14.613Z,14.20
2022-10-11T22:22:14.614Z,14.40
2022-10-11T22:32:14.618Z,15.00
2022-10-11T22:42:14.629Z,14.90
2022-10-11T22:52:14.604Z,12.80
2022-10-11T23:02:14.603Z,13.60
2022-10-11T23:12:14.698Z,13.60
2022-10-11T23:22:14.627Z,14.40
2022-10-11T23:32:14.625Z,13.70
2022-10-11T23:42:14.642Z,14.40
2022-10-11T23:52:14.621Z,15.00
